sensor_id;sensor_type;location;lat;lon;timestamp;temperature;humidity
16929;DHT22;8581;47.334;11.190;2022-11-15T00:00:55;0.10;99.90
16929;DHT22;8581;47.334;11.190;2022-11-15T00:03:27;0.10;99.90
16929;DHT22;8581;47.334;11.190;2022-11-15T00:06:02;0.10;99.90
16929;DHT22;8581;47.334;11.190;2022-11-15T00:08:33;0.20;99.90
16929;DHT22;8581;47.334;11.190;2022-11-15T00:11:05;0.20;99.90
16929;DHT22;8581;47.334;11.190;2022-11-15T00:13:36;0.20;99.90
16929;DHT22;8581;47.334;11.190;2022-11-15T00:16:08;0.40;99.90
16929;DHT22;8581;47.334;11.190;2022-11-15T00:18:40;0.50;99.90
16929;DHT22;8581;47.334;11.190;2022-11-15T00:21:12;0.40;99.90
16929;DHT22;8581;47.334;11.190;2022-11-15T00:23:43;0.30;99.90
16929;DHT22;8581;47.334;11.190;2022-11-15T00:26:14;0.20;99.90
16929;DHT22;8581;47.334;11.190;2022-11-15T00:28:46;0.10;99.90
16929;DHT22;8581;47.334;11.190;2022-11-15T00:31:17;0.10;99.90
16929;DHT22;8581;47.334;11.190;2022-11-15T00:33:49;0.10;99.90
16929;DHT22;8581;47.334;11.190;2022-11-15T00:36:21;0.20;99.90
16929;DHT22;8581;47.334;11.190;2022-11-15T00:38:52;0.30;99.90
16929;DHT22;8581;47.334;11.190;2022-11-15T00:41:24;0.30;99.90
16929;DHT22;8581;47.334;11.190;2022-11-15T00:43:55;0.10;99.90
16929;DHT22;8581;47.334;11.190;2022-11-15T00:46:27;0.20;99.90
16929;DHT22;8581;47.334;11.190;2022-11-15T00:48:59;0.20;99.90
16929;DHT22;8581;47.334;11.190;2022-11-15T00:51:30;0.10;99.90
16929;DHT22;8581;47.334;11.190;2022-11-15T00:54:02;0.10;99.90
16929;DHT22;8581;47.334;11.190;2022-11-15T00:56:34;0.20;99.90
16929;DHT22;8581;47.334;11.190;2022-11-15T00:59:05;0.10;99.90
16929;DHT22;8581;47.334;11.190;2022-11-15T01:01:37;0.20;99.90
16929;DHT22;8581;47.334;11.190;2022-11-15T01:04:08;0.20;99.90
16929;DHT22;8581;47.334;11.190;2022-11-15T01:06:40;0.10;99.90
16929;DHT22;8581;47.334;11.190;2022-11-15T01:09:12;0.00;99.90
16929;DHT22;8581;47.334;11.190;2022-11-15T01:11:43;0.00;99.90
16929;DHT22;8581;47.334;11.190;2022-11-15T01:14:15;-0.10;99.90
16929;DHT22;8581;47.334;11.190;2022-11-15T01:16:46;-0.10;99.90
16929;DHT22;8581;47.334;11.190;2022-11-15T01:19:18;-0.10;99.90
16929;DHT22;8581;47.334;11.190;2022-11-15T01:21:50;-0.20;99.90
16929;DHT22;8581;47.334;11.190;2022-11-15T01:24:21;-0.10;99.90
16929;DHT22;8581;47.334;11.190;2022-11-15T01:26:53;-0.20;99.90
16929;DHT22;8581;47.334;11.190;2022-11-15T01:29:24;-0.20;99.90
16929;DHT22;8581;47.334;11.190;2022-11-15T01:31:56;-0.30;99.90
16929;DHT22;8581;47.334;11.190;2022-11-15T01:34:28;-0.30;99.90
16929;DHT22;8581;47.334;11.190;2022-11-15T01:36:59;-0.30;99.90
16929;DHT22;8581;47.334;11.190;2022-11-15T01:39:31;-0.20;99.90
16929;DHT22;8581;47.334;11.190;2022-11-15T01:42:02;-0.30;99.90
16929;DHT22;8581;47.334;11.190;2022-11-15T01:44:39;-0.30;99.90
16929;DHT22;8581;47.334;11.190;2022-11-15T01:47:14;-0.30;99.90
16929;DHT22;8581;47.334;11.190;2022-11-15T01:50:17;-0.20;99.90
16929;DHT22;8581;47.334;11.190;2022-11-15T01:52:31;-0.30;99.90
16929;DHT22;8581;47.334;11.190;2022-11-15T01:55:07;-0.30;99.90
16929;DHT22;8581;47.334;11.190;2022-11-15T01:57:37;-0.30;99.90
16929;DHT22;8581;47.334;11.190;2022-11-15T02:00:10;-0.20;99.90
16929;DHT22;8581;47.334;11.190;2022-11-15T02:02:42;-0.20;99.90
16929;DHT22;8581;47.334;11.190;2022-11-15T02:05:13;-0.30;99.90
16929;DHT22;8581;47.334;11.190;2022-11-15T02:07:45;-0.30;99.90
16929;DHT22;8581;47.334;11.190;2022-11-15T02:10:18;-0.30;99.90
16929;DHT22;8581;47.334;11.190;2022-11-15T02:12:49;-0.20;99.90
16929;DHT22;8581;47.334;11.190;2022-11-15T02:15:21;-0.30;99.90
16929;DHT22;8581;47.334;11.190;2022-11-15T02:18:32;-0.30;99.90
16929;DHT22;8581;47.334;11.190;2022-11-15T02:21:09;-0.40;99.90
16929;DHT22;8581;47.334;11.190;2022-11-15T02:23:59;-0.20;99.90
16929;DHT22;8581;47.334;11.190;2022-11-15T02:26:40;-0.30;99.90
16929;DHT22;8581;47.334;11.190;2022-11-15T02:29:07;-0.30;99.90
16929;DHT22;8581;47.334;11.190;2022-11-15T02:31:51;-0.20;99.90
16929;DHT22;8581;47.334;11.190;2022-11-15T02:37:36;-0.50;99.90
16929;DHT22;8581;47.334;11.190;2022-11-15T02:40:13;-0.50;99.90
16929;DHT22;8581;47.334;11.190;2022-11-15T02:42:45;-0.60;99.90
16929;DHT22;8581;47.334;11.190;2022-11-15T02:45:28;-0.60;99.90
16929;DHT22;8581;47.334;11.190;2022-11-15T02:47:58;-0.50;99.90
16929;DHT22;8581;47.334;11.190;2022-11-15T02:50:30;-0.50;99.90
16929;DHT22;8581;47.334;11.190;2022-11-15T02:53:02;-0.60;99.90
16929;DHT22;8581;47.334;11.190;2022-11-15T02:55:36;-0.60;99.90
16929;DHT22;8581;47.334;11.190;2022-11-15T02:58:15;-0.60;99.90
16929;DHT22;8581;47.334;11.190;2022-11-15T03:00:56;-0.70;99.90
16929;DHT22;8581;47.334;11.190;2022-11-15T03:03:34;-0.60;99.90
16929;DHT22;8581;47.334;11.190;2022-11-15T03:06:18;-0.60;99.90
16929;DHT22;8581;47.334;11.190;2022-11-15T03:08:53;-0.60;99.90
16929;DHT22;8581;47.334;11.190;2022-11-15T03:11:22;-0.70;99.90
16929;DHT22;8581;47.334;11.190;2022-11-15T03:14:01;-0.60;99.90
16929;DHT22;8581;47.334;11.190;2022-11-15T03:16:38;-0.50;99.90
16929;DHT22;8581;47.334;11.190;2022-11-15T03:19:14;-0.50;99.90
16929;DHT22;8581;47.334;11.190;2022-11-15T03:21:44;-0.70;99.90
16929;DHT22;8581;47.334;11.190;2022-11-15T03:24:16;-0.70;99.90
16929;DHT22;8581;47.334;11.190;2022-11-15T03:26:48;-0.80;99.90
16929;DHT22;8581;47.334;11.190;2022-11-15T03:29:22;-0.80;99.90
16929;DHT22;8581;47.334;11.190;2022-11-15T03:31:54;-0.60;99.90
16929;DHT22;8581;47.334;11.190;2022-11-15T03:34:29;-0.50;99.90
16929;DHT22;8581;47.334;11.190;2022-11-15T03:36:59;-0.50;99.90
16929;DHT22;8581;47.334;11.190;2022-11-15T03:39:30;-0.60;99.90
16929;DHT22;8581;47.334;11.190;2022-11-15T03:42:08;-0.70;99.90
16929;DHT22;8581;47.334;11.190;2022-11-15T03:44:46;-0.60;99.90
16929;DHT22;8581;47.334;11.190;2022-11-15T03:47:18;-0.70;99.90
16929;DHT22;8581;47.334;11.190;2022-11-15T03:50:04;-0.60;99.90
16929;DHT22;8581;47.334;11.190;2022-11-15T03:52:34;-0.80;99.90
16929;DHT22;8581;47.334;11.190;2022-11-15T03:55:08;-0.70;99.90
16929;DHT22;8581;47.334;11.190;2022-11-15T03:57:39;-0.70;99.90
16929;DHT22;8581;47.334;11.190;2022-11-15T04:00:11;-0.80;99.90
16929;DHT22;8581;47.334;11.190;2022-11-15T04:02:43;-0.90;99.90
16929;DHT22;8581;47.334;11.190;2022-11-15T04:05:15;-0.90;99.90
16929;DHT22;8581;47.334;11.190;2022-11-15T04:07:46;-0.80;99.90
16929;DHT22;8581;47.334;11.190;2022-11-15T04:10:18;-0.70;99.90
16929;DHT22;8581;47.334;11.190;2022-11-15T04:12:50;-0.60;99.90
16929;DHT22;8581;47.334;11.190;2022-11-15T04:15:22;-0.60;99.90
16929;DHT22;8581;47.334;11.190;2022-11-15T04:17:53;-0.70;99.90
16929;DHT22;8581;47.334;11.190;2022-11-15T04:20:26;-0.60;99.90
16929;DHT22;8581;47.334;11.190;2022-11-15T04:23:03;-0.60;99.90
16929;DHT22;8581;47.334;11.190;2022-11-15T04:25:39;-0.60;99.90
16929;DHT22;8581;47.334;11.190;2022-11-15T04:28:11;-0.60;99.90
16929;DHT22;8581;47.334;11.190;2022-11-15T04:30:42;-0.70;99.90
16929;DHT22;8581;47.334;11.190;2022-11-15T04:33:14;-0.70;99.90
16929;DHT22;8581;47.334;11.190;2022-11-15T04:35:45;-0.70;99.90
16929;DHT22;8581;47.334;11.190;2022-11-15T04:38:17;-0.60;99.90
16929;DHT22;8581;47.334;11.190;2022-11-15T04:40:49;-0.70;99.90
16929;DHT22;8581;47.334;11.190;2022-11-15T04:43:20;-0.80;99.90
16929;DHT22;8581;47.334;11.190;2022-11-15T04:45:52;-0.70;99.90
16929;DHT22;8581;47.334;11.190;2022-11-15T04:48:23;-0.80;99.90
16929;DHT22;8581;47.334;11.190;2022-11-15T04:50:55;-0.80;99.90
16929;DHT22;8581;47.334;11.190;2022-11-15T04:53:27;-1.00;99.90
16929;DHT22;8581;47.334;11.190;2022-11-15T04:55:58;-1.00;99.90
16929;DHT22;8581;47.334;11.190;2022-11-15T04:58:30;-0.90;99.90
16929;DHT22;8581;47.334;11.190;2022-11-15T05:01:09;-0.70;99.90
16929;DHT22;8581;47.334;11.190;2022-11-15T05:03:40;-0.70;99.90
16929;DHT22;8581;47.334;11.190;2022-11-15T05:06:17;-0.60;99.90
16929;DHT22;8581;47.334;11.190;2022-11-15T05:08:49;-0.60;99.90
16929;DHT22;8581;47.334;11.190;2022-11-15T05:11:20;-0.60;99.90
16929;DHT22;8581;47.334;11.190;2022-11-15T05:13:52;-0.30;99.90
16929;DHT22;8581;47.334;11.190;2022-11-15T05:16:23;-0.40;99.90
16929;DHT22;8581;47.334;11.190;2022-11-15T05:18:55;-0.50;99.90
16929;DHT22;8581;47.334;11.190;2022-11-15T05:21:27;-0.40;99.90
16929;DHT22;8581;47.334;11.190;2022-11-15T05:23:58;-0.30;99.90
16929;DHT22;8581;47.334;11.190;2022-11-15T05:26:30;-0.20;99.90
16929;DHT22;8581;47.334;11.190;2022-11-15T05:29:02;-0.10;99.90
16929;DHT22;8581;47.334;11.190;2022-11-15T05:31:33;-0.20;99.90
16929;DHT22;8581;47.334;11.190;2022-11-15T05:34:05;-0.40;99.90
16929;DHT22;8581;47.334;11.190;2022-11-15T05:36:38;-0.50;99.90
16929;DHT22;8581;47.334;11.190;2022-11-15T05:39:08;-0.40;99.90
16929;DHT22;8581;47.334;11.190;2022-11-15T05:41:46;-0.40;99.90
16929;DHT22;8581;47.334;11.190;2022-11-15T05:44:17;-0.30;99.90
16929;DHT22;8581;47.334;11.190;2022-11-15T05:46:48;-0.10;99.90
16929;DHT22;8581;47.334;11.190;2022-11-15T05:49:20;-0.10;99.90
16929;DHT22;8581;47.334;11.190;2022-11-15T05:51:51;-0.20;99.90
16929;DHT22;8581;47.334;11.190;2022-11-15T05:54:22;-0.20;99.90
16929;DHT22;8581;47.334;11.190;2022-11-15T05:56:54;-0.20;99.90
16929;DHT22;8581;47.334;11.190;2022-11-15T05:59:27;-0.40;99.90
16929;DHT22;8581;47.334;11.190;2022-11-15T06:01:57;-0.40;99.90
16929;DHT22;8581;47.334;11.190;2022-11-15T06:04:29;-0.40;99.90
16929;DHT22;8581;47.334;11.190;2022-11-15T06:07:00;-0.10;99.90
16929;DHT22;8581;47.334;11.190;2022-11-15T06:09:32;0.10;99.90
16929;DHT22;8581;47.334;11.190;2022-11-15T06:12:04;0.00;99.90
16929;DHT22;8581;47.334;11.190;2022-11-15T06:14:35;0.00;99.90
16929;DHT22;8581;47.334;11.190;2022-11-15T06:17:08;0.10;99.90
16929;DHT22;8581;47.334;11.190;2022-11-15T06:19:39;0.10;99.90
16929;DHT22;8581;47.334;11.190;2022-11-15T06:22:11;0.10;99.90
16929;DHT22;8581;47.334;11.190;2022-11-15T06:24:42;0.00;99.90
16929;DHT22;8581;47.334;11.190;2022-11-15T06:27:14;0.10;99.90
16929;DHT22;8581;47.334;11.190;2022-11-15T06:29:46;0.10;99.90
16929;DHT22;8581;47.334;11.190;2022-11-15T06:32:17;0.20;99.90
16929;DHT22;8581;47.334;11.190;2022-11-15T06:34:49;0.30;99.90
16929;DHT22;8581;47.334;11.190;2022-11-15T06:37:20;0.30;99.90
16929;DHT22;8581;47.334;11.190;2022-11-15T06:39:52;0.20;99.90
16929;DHT22;8581;47.334;11.190;2022-11-15T06:42:24;0.20;99.90
16929;DHT22;8581;47.334;11.190;2022-11-15T06:44:55;0.10;99.90
16929;DHT22;8581;47.334;11.190;2022-11-15T06:47:27;0.10;99.90
16929;DHT22;8581;47.334;11.190;2022-11-15T06:49:58;0.20;99.90
16929;DHT22;8581;47.334;11.190;2022-11-15T06:52:31;0.40;99.90
16929;DHT22;8581;47.334;11.190;2022-11-15T06:55:02;0.50;99.90
16929;DHT22;8581;47.334;11.190;2022-11-15T06:57:33;0.50;99.90
16929;DHT22;8581;47.334;11.190;2022-11-15T07:00:06;0.60;99.90
16929;DHT22;8581;47.334;11.190;2022-11-15T07:02:37;0.70;99.90
16929;DHT22;8581;47.334;11.190;2022-11-15T07:05:09;0.90;99.90
16929;DHT22;8581;47.334;11.190;2022-11-15T07:07:41;0.90;99.90
16929;DHT22;8581;47.334;11.190;2022-11-15T07:10:12;1.10;99.90
16929;DHT22;8581;47.334;11.190;2022-11-15T07:12:46;1.70;99.90
16929;DHT22;8581;47.334;11.190;2022-11-15T07:15:16;2.10;99.90
16929;DHT22;8581;47.334;11.190;2022-11-15T07:17:47;2.20;99.90
16929;DHT22;8581;47.334;11.190;2022-11-15T07:20:19;2.10;99.90
16929;DHT22;8581;47.334;11.190;2022-11-15T07:22:50;1.60;99.90
16929;DHT22;8581;47.334;11.190;2022-11-15T07:25:22;1.60;99.90
16929;DHT22;8581;47.334;11.190;2022-11-15T07:27:56;1.60;99.90
16929;DHT22;8581;47.334;11.190;2022-11-15T07:30:27;1.70;99.90
16929;DHT22;8581;47.334;11.190;2022-11-15T07:32:59;1.70;99.90
16929;DHT22;8581;47.334;11.190;2022-11-15T07:35:30;1.60;99.90
16929;DHT22;8581;47.334;11.190;2022-11-15T07:38:02;1.70;99.90
16929;DHT22;8581;47.334;11.190;2022-11-15T07:40:33;1.70;99.90
16929;DHT22;8581;47.334;11.190;2022-11-15T07:43:07;1.60;99.90
16929;DHT22;8581;47.334;11.190;2022-11-15T07:45:40;1.70;99.90
16929;DHT22;8581;47.334;11.190;2022-11-15T07:48:11;1.80;99.90
16929;DHT22;8581;47.334;11.190;2022-11-15T07:50:42;1.80;99.90
16929;DHT22;8581;47.334;11.190;2022-11-15T07:53:14;1.70;99.90
16929;DHT22;8581;47.334;11.190;2022-11-15T07:55:46;1.90;99.90
16929;DHT22;8581;47.334;11.190;2022-11-15T07:58:17;1.90;99.90
16929;DHT22;8581;47.334;11.190;2022-11-15T08:00:49;2.20;99.90
16929;DHT22;8581;47.334;11.190;2022-11-15T08:03:20;2.60;99.90
16929;DHT22;8581;47.334;11.190;2022-11-15T08:05:52;3.10;99.90
16929;DHT22;8581;47.334;11.190;2022-11-15T08:08:24;3.40;99.90
16929;DHT22;8581;47.334;11.190;2022-11-15T08:10:57;3.70;99.90
16929;DHT22;8581;47.334;11.190;2022-11-15T08:13:27;3.90;99.90
16929;DHT22;8581;47.334;11.190;2022-11-15T08:15:59;4.50;99.90
16929;DHT22;8581;47.334;11.190;2022-11-15T08:18:32;4.80;99.90
16929;DHT22;8581;47.334;11.190;2022-11-15T08:21:05;5.10;99.90
16929;DHT22;8581;47.334;11.190;2022-11-15T08:23:37;5.50;99.90
16929;DHT22;8581;47.334;11.190;2022-11-15T08:26:08;5.90;99.90
16929;DHT22;8581;47.334;11.190;2022-11-15T08:28:40;6.10;99.90
16929;DHT22;8581;47.334;11.190;2022-11-15T08:31:16;6.20;99.90
16929;DHT22;8581;47.334;11.190;2022-11-15T08:33:47;6.40;99.90
16929;DHT22;8581;47.334;11.190;2022-11-15T08:36:19;6.50;99.90
16929;DHT22;8581;47.334;11.190;2022-11-15T08:38:50;6.70;99.90
16929;DHT22;8581;47.334;11.190;2022-11-15T08:41:26;7.10;99.90
16929;DHT22;8581;47.334;11.190;2022-11-15T08:43:56;7.40;99.90
16929;DHT22;8581;47.334;11.190;2022-11-15T08:46:28;7.50;99.90
16929;DHT22;8581;47.334;11.190;2022-11-15T08:48:59;7.60;99.90
16929;DHT22;8581;47.334;11.190;2022-11-15T08:51:31;7.80;99.90
16929;DHT22;8581;47.334;11.190;2022-11-15T08:54:02;8.00;99.90
16929;DHT22;8581;47.334;11.190;2022-11-15T08:56:34;8.20;99.90
16929;DHT22;8581;47.334;11.190;2022-11-15T08:59:06;8.40;99.90
16929;DHT22;8581;47.334;11.190;2022-11-15T09:01:37;8.60;99.90
16929;DHT22;8581;47.334;11.190;2022-11-15T09:04:09;8.90;99.90
16929;DHT22;8581;47.334;11.190;2022-11-15T09:06:40;9.00;99.90
16929;DHT22;8581;47.334;11.190;2022-11-15T09:09:12;9.10;99.90
16929;DHT22;8581;47.334;11.190;2022-11-15T09:11:44;9.20;99.90
16929;DHT22;8581;47.334;11.190;2022-11-15T09:14:15;9.40;99.90
16929;DHT22;8581;47.334;11.190;2022-11-15T09:16:47;9.40;99.90
16929;DHT22;8581;47.334;11.190;2022-11-15T09:19:18;9.40;99.90
16929;DHT22;8581;47.334;11.190;2022-11-15T09:21:50;9.50;99.90
16929;DHT22;8581;47.334;11.190;2022-11-15T09:24:22;9.60;99.90
16929;DHT22;8581;47.334;11.190;2022-11-15T09:26:53;9.70;99.90
16929;DHT22;8581;47.334;11.190;2022-11-15T09:29:25;9.80;99.90
16929;DHT22;8581;47.334;11.190;2022-11-15T09:31:56;9.80;99.90
16929;DHT22;8581;47.334;11.190;2022-11-15T09:34:28;10.10;99.90
16929;DHT22;8581;47.334;11.190;2022-11-15T09:37:00;10.10;99.90
16929;DHT22;8581;47.334;11.190;2022-11-15T09:39:31;10.20;99.90
16929;DHT22;8581;47.334;11.190;2022-11-15T09:44:59;10.90;99.90
16929;DHT22;8581;47.334;11.190;2022-11-15T09:48:07;11.00;99.90
16929;DHT22;8581;47.334;11.190;2022-11-15T09:50:38;11.20;99.90
16929;DHT22;8581;47.334;11.190;2022-11-15T09:53:10;11.00;99.90
16929;DHT22;8581;47.334;11.190;2022-11-15T09:55:45;11.00;99.90
16929;DHT22;8581;47.334;11.190;2022-11-15T09:58:18;11.20;99.90
16929;DHT22;8581;47.334;11.190;2022-11-15T10:00:47;11.30;99.90
16929;DHT22;8581;47.334;11.190;2022-11-15T10:03:26;11.30;99.90
16929;DHT22;8581;47.334;11.190;2022-11-15T10:05:57;11.40;99.90
16929;DHT22;8581;47.334;11.190;2022-11-15T10:08:31;11.70;99.90
16929;DHT22;8581;47.334;11.190;2022-11-15T10:11:03;12.00;99.90
16929;DHT22;8581;47.334;11.190;2022-11-15T10:13:34;11.80;99.90
16929;DHT22;8581;47.334;11.190;2022-11-15T10:16:19;11.90;99.90
16929;DHT22;8581;47.334;11.190;2022-11-15T10:18:54;11.80;99.90
16929;DHT22;8581;47.334;11.190;2022-11-15T10:21:25;11.80;99.90
16929;DHT22;8581;47.334;11.190;2022-11-15T10:23:55;12.20;99.90
16929;DHT22;8581;47.334;11.190;2022-11-15T10:26:27;12.50;99.90
16929;DHT22;8581;47.334;11.190;2022-11-15T10:28:58;12.70;99.90
16929;DHT22;8581;47.334;11.190;2022-11-15T10:31:30;12.70;99.90
16929;DHT22;8581;47.334;11.190;2022-11-15T10:34:21;12.90;99.90
16929;DHT22;8581;47.334;11.190;2022-11-15T10:36:55;13.00;99.90
16929;DHT22;8581;47.334;11.190;2022-11-15T10:39:26;13.10;99.90
16929;DHT22;8581;47.334;11.190;2022-11-15T10:41:57;13.30;99.60
16929;DHT22;8581;47.334;11.190;2022-11-15T10:44:29;13.50;99.10
16929;DHT22;8581;47.334;11.190;2022-11-15T10:47:05;13.60;99.50
16929;DHT22;8581;47.334;11.190;2022-11-15T10:49:35;13.90;99.00
16929;DHT22;8581;47.334;11.190;2022-11-15T10:52:15;13.80;99.00
16929;DHT22;8581;47.334;11.190;2022-11-15T10:54:48;14.20;98.80
16929;DHT22;8581;47.334;11.190;2022-11-15T10:57:21;14.50;97.90
16929;DHT22;8581;47.334;11.190;2022-11-15T10:59:53;14.60;97.70
16929;DHT22;8581;47.334;11.190;2022-11-15T11:02:29;14.80;97.10
16929;DHT22;8581;47.334;11.190;2022-11-15T11:05:00;15.00;96.90
16929;DHT22;8581;47.334;11.190;2022-11-15T11:07:32;15.40;96.70
16929;DHT22;8581;47.334;11.190;2022-11-15T11:10:05;15.30;96.60
16929;DHT22;8581;47.334;11.190;2022-11-15T11:12:35;15.70;95.90
16929;DHT22;8581;47.334;11.190;2022-11-15T11:15:12;15.40;95.60
16929;DHT22;8581;47.334;11.190;2022-11-15T11:17:49;15.60;94.70
16929;DHT22;8581;47.334;11.190;2022-11-15T11:20:25;15.10;94.80
16929;DHT22;8581;47.334;11.190;2022-11-15T11:23:14;15.30;94.90
16929;DHT22;8581;47.334;11.190;2022-11-15T11:25:41;15.60;94.30
16929;DHT22;8581;47.334;11.190;2022-11-15T11:28:20;15.90;94.80
16929;DHT22;8581;47.334;11.190;2022-11-15T11:30:58;15.60;94.90
16929;DHT22;8581;47.334;11.190;2022-11-15T11:33:31;16.40;95.80
16929;DHT22;8581;47.334;11.190;2022-11-15T11:38:47;18.00;92.90
16929;DHT22;8581;47.334;11.190;2022-11-15T11:41:27;17.80;92.00
16929;DHT22;8581;47.334;11.190;2022-11-15T11:44:24;17.60;91.30
16929;DHT22;8581;47.334;11.190;2022-11-15T11:47:00;17.80;92.30
16929;DHT22;8581;47.334;11.190;2022-11-15T11:49:41;17.60;91.70
16929;DHT22;8581;47.334;11.190;2022-11-15T11:52:24;18.10;91.50
16929;DHT22;8581;47.334;11.190;2022-11-15T11:55:16;17.20;92.00
16929;DHT22;8581;47.334;11.190;2022-11-15T11:57:55;18.00;90.80
16929;DHT22;8581;47.334;11.190;2022-11-15T12:00:24;19.70;90.10
16929;DHT22;8581;47.334;11.190;2022-11-15T12:03:21;18.80;88.00
16929;DHT22;8581;47.334;11.190;2022-11-15T12:05:51;18.80;87.40
16929;DHT22;8581;47.334;11.190;2022-11-15T12:08:25;19.00;87.40
16929;DHT22;8581;47.334;11.190;2022-11-15T12:10:59;20.70;85.00
16929;DHT22;8581;47.334;11.190;2022-11-15T12:13:28;21.30;82.10
16929;DHT22;8581;47.334;11.190;2022-11-15T12:16:03;22.10;78.60
16929;DHT22;8581;47.334;11.190;2022-11-15T12:18:32;22.10;78.20
16929;DHT22;8581;47.334;11.190;2022-11-15T12:21:07;23.80;75.70
16929;DHT22;8581;47.334;11.190;2022-11-15T12:23:41;24.90;71.40
16929;DHT22;8581;47.334;11.190;2022-11-15T12:26:14;23.50;69.50
16929;DHT22;8581;47.334;11.190;2022-11-15T12:28:46;22.60;71.20
16929;DHT22;8581;47.334;11.190;2022-11-15T12:31:50;23.80;71.20
16929;DHT22;8581;47.334;11.190;2022-11-15T12:36:49;23.10;70.20
16929;DHT22;8581;47.334;11.190;2022-11-15T12:39:20;21.90;71.40
16929;DHT22;8581;47.334;11.190;2022-11-15T12:42:56;23.10;69.70
16929;DHT22;8581;47.334;11.190;2022-11-15T12:44:58;24.30;68.40
16929;DHT22;8581;47.334;11.190;2022-11-15T12:47:29;24.90;65.60
16929;DHT22;8581;47.334;11.190;2022-11-15T12:50:01;24.30;64.60
16929;DHT22;8581;47.334;11.190;2022-11-15T12:52:32;24.30;66.50
16929;DHT22;8581;47.334;11.190;2022-11-15T12:55:28;24.10;66.00
16929;DHT22;8581;47.334;11.190;2022-11-15T12:57:36;23.60;65.40
16929;DHT22;8581;47.334;11.190;2022-11-15T13:03:19;23.40;66.70
16929;DHT22;8581;47.334;11.190;2022-11-15T13:05:53;23.30;68.10
16929;DHT22;8581;47.334;11.190;2022-11-15T13:08:36;25.00;64.70
16929;DHT22;8581;47.334;11.190;2022-11-15T13:13:50;25.00;64.80
16929;DHT22;8581;47.334;11.190;2022-11-15T13:16:21;22.50;66.70
16929;DHT22;8581;47.334;11.190;2022-11-15T13:18:53;21.80;67.70
16929;DHT22;8581;47.334;11.190;2022-11-15T13:21:25;21.80;70.00
16929;DHT22;8581;47.334;11.190;2022-11-15T13:24:02;21.60;69.20
16929;DHT22;8581;47.334;11.190;2022-11-15T13:26:34;19.80;74.10
16929;DHT22;8581;47.334;11.190;2022-11-15T13:29:13;19.10;75.70
16929;DHT22;8581;47.334;11.190;2022-11-15T13:31:37;17.80;77.00
16929;DHT22;8581;47.334;11.190;2022-11-15T13:34:21;16.50;79.70
16929;DHT22;8581;47.334;11.190;2022-11-15T13:36:48;15.80;82.50
16929;DHT22;8581;47.334;11.190;2022-11-15T13:39:28;17.20;80.40
16929;DHT22;8581;47.334;11.190;2022-11-15T13:41:58;18.30;78.80
16929;DHT22;8581;47.334;11.190;2022-11-15T13:44:30;19.20;75.30
16929;DHT22;8581;47.334;11.190;2022-11-15T13:47:03;20.40;74.80
16929;DHT22;8581;47.334;11.190;2022-11-15T13:49:34;21.30;71.50
16929;DHT22;8581;47.334;11.190;2022-11-15T13:52:07;22.00;68.80
16929;DHT22;8581;47.334;11.190;2022-11-15T13:54:44;20.20;70.50
16929;DHT22;8581;47.334;11.190;2022-11-15T13:57:17;19.20;73.30
16929;DHT22;8581;47.334;11.190;2022-11-15T13:59:54;18.70;74.10
16929;DHT22;8581;47.334;11.190;2022-11-15T14:02:28;17.50;75.90
16929;DHT22;8581;47.334;11.190;2022-11-15T14:05:02;18.10;77.40
16929;DHT22;8581;47.334;11.190;2022-11-15T14:07:31;17.50;77.70
16929;DHT22;8581;47.334;11.190;2022-11-15T14:12:50;19.00;78.90
16929;DHT22;8581;47.334;11.190;2022-11-15T14:18:38;15.70;82.00
16929;DHT22;8581;47.334;11.190;2022-11-15T14:20:44;15.40;82.70
16929;DHT22;8581;47.334;11.190;2022-11-15T14:23:19;14.80;83.90
16929;DHT22;8581;47.334;11.190;2022-11-15T14:25:52;14.50;86.40
16929;DHT22;8581;47.334;11.190;2022-11-15T14:28:32;14.70;87.40
16929;DHT22;8581;47.334;11.190;2022-11-15T14:31:09;14.40;87.20
16929;DHT22;8581;47.334;11.190;2022-11-15T14:33:36;14.20;87.70
16929;DHT22;8581;47.334;11.190;2022-11-15T14:36:14;14.20;88.30
16929;DHT22;8581;47.334;11.190;2022-11-15T14:38:44;14.20;89.30
16929;DHT22;8581;47.334;11.190;2022-11-15T14:41:18;14.10;88.90
16929;DHT22;8581;47.334;11.190;2022-11-15T14:43:49;13.80;89.60
16929;DHT22;8581;47.334;11.190;2022-11-15T14:46:20;13.20;90.20
16929;DHT22;8581;47.334;11.190;2022-11-15T14:48:52;12.70;90.60
16929;DHT22;8581;47.334;11.190;2022-11-15T14:51:24;12.40;91.10
16929;DHT22;8581;47.334;11.190;2022-11-15T14:53:55;12.60;91.80
16929;DHT22;8581;47.334;11.190;2022-11-15T14:56:27;12.80;92.70
16929;DHT22;8581;47.334;11.190;2022-11-15T14:58:58;12.50;92.20
16929;DHT22;8581;47.334;11.190;2022-11-15T15:01:30;12.10;92.60
16929;DHT22;8581;47.334;11.190;2022-11-15T15:04:02;12.20;93.00
16929;DHT22;8581;47.334;11.190;2022-11-15T15:06:33;11.90;92.30
16929;DHT22;8581;47.334;11.190;2022-11-15T15:09:05;11.80;93.40
16929;DHT22;8581;47.334;11.190;2022-11-15T15:11:36;12.10;94.40
16929;DHT22;8581;47.334;11.190;2022-11-15T15:14:08;11.80;95.40
16929;DHT22;8581;47.334;11.190;2022-11-15T15:16:40;11.70;95.90
16929;DHT22;8581;47.334;11.190;2022-11-15T15:19:11;11.30;96.40
16929;DHT22;8581;47.334;11.190;2022-11-15T15:21:43;11.00;98.00
16929;DHT22;8581;47.334;11.190;2022-11-15T15:24:15;10.70;99.80
16929;DHT22;8581;47.334;11.190;2022-11-15T15:26:46;10.70;99.40
16929;DHT22;8581;47.334;11.190;2022-11-15T15:29:18;10.90;99.00
16929;DHT22;8581;47.334;11.190;2022-11-15T15:31:49;10.90;98.60
16929;DHT22;8581;47.334;11.190;2022-11-15T15:34:21;11.00;99.20
16929;DHT22;8581;47.334;11.190;2022-11-15T15:39:36;10.60;99.90
16929;DHT22;8581;47.334;11.190;2022-11-15T15:42:08;10.70;99.90
16929;DHT22;8581;47.334;11.190;2022-11-15T15:44:39;10.70;99.90
16929;DHT22;8581;47.334;11.190;2022-11-15T15:47:11;10.50;99.90
16929;DHT22;8581;47.334;11.190;2022-11-15T15:49:42;10.50;99.90
16929;DHT22;8581;47.334;11.190;2022-11-15T15:52:14;10.30;99.90
16929;DHT22;8581;47.334;11.190;2022-11-15T15:54:46;10.20;99.90
16929;DHT22;8581;47.334;11.190;2022-11-15T15:57:17;10.00;99.90
16929;DHT22;8581;47.334;11.190;2022-11-15T15:59:49;10.30;99.90
16929;DHT22;8581;47.334;11.190;2022-11-15T16:02:20;9.80;99.90
16929;DHT22;8581;47.334;11.190;2022-11-15T16:04:52;10.00;99.90
16929;DHT22;8581;47.334;11.190;2022-11-15T16:07:24;10.00;99.90
16929;DHT22;8581;47.334;11.190;2022-11-15T16:09:55;9.80;99.90
16929;DHT22;8581;47.334;11.190;2022-11-15T16:12:34;9.60;99.90
16929;DHT22;8581;47.334;11.190;2022-11-15T16:15:07;9.60;99.90
16929;DHT22;8581;47.334;11.190;2022-11-15T16:17:39;9.60;99.90
16929;DHT22;8581;47.334;11.190;2022-11-15T16:20:29;9.50;99.90
16929;DHT22;8581;47.334;11.190;2022-11-15T16:22:57;9.40;99.90
16929;DHT22;8581;47.334;11.190;2022-11-15T16:25:29;9.30;99.90
16929;DHT22;8581;47.334;11.190;2022-11-15T16:28:00;9.20;99.90
16929;DHT22;8581;47.334;11.190;2022-11-15T16:30:32;9.10;99.90
16929;DHT22;8581;47.334;11.190;2022-11-15T16:33:03;9.00;99.90
16929;DHT22;8581;47.334;11.190;2022-11-15T16:35:35;9.00;99.90
16929;DHT22;8581;47.334;11.190;2022-11-15T16:38:08;9.00;99.90